Disclaimer

Please do not use the information listed here in-flight or in-navigation, as they are not provided to us by the airports but are provided by volunteers, so they might be outdated.

Search


Regions


Airport information page

No radio frequency information is available.

Airport informations:
Latitude: 51° 43' 18.77" N
Longitude: 019° 23' 53.28" E
Elevation: 604 feet - 184 meters
Operating hours: Remarks
Operating agency: Civil government, landing fees and diplomatic clearance may be required
Timezone: UTC+1(+2DT) - Last Sunday in March to last Sunday in October
Fuel: N/A

Runway information:
07L/25R - 4733 x 148 feet< - >1443 x 45 meters

Recent METARs:
EPLL 171930Z 05009KT CAVOK M00/M06 Q1037
EPLL 172000Z 06009KT CAVOK M01/M05 Q1037
EPLL 172030Z 08006KT CAVOK M02/M06 Q1036

Airport on the map: